Avon, Ohio
Current Conditions -  °F | °C
As of 2:51 AM on Saturday 25 Oct 2014 (Local Time) from KCLE Reporting Station
Overcast Overcast  
Wind Chill: 52°   Ceiling: 4500
Heat Index: 52°   Visibility: 10mi
Dew Point: 43°   Wind: 3mph
Humidity: 71%   Direction: 190°S
Pressure: 29.98"   Gusts: NA
Location:  41.47°N, 82.02°W
Report Text: KCLE 250651Z 19003KT 10SM OVC045 11/06 A2998 RMK AO2 SLP151 T01110061
Loading
Personal Weather Stations






























Interactive Weather Map
Tropical Storm Tracking
New forecast layout! Learn more

10-Day Weather Forecast

Advertisements
Track Severe Weather on mobile